Time;durP1;ratioP1;P1;durP2;ratioP2;P2;SDS_P1;SDS_P2;PMS_P1;PMS_P2;Temp;Humidity;BMP_temperature;BMP_pressure;BME280_temperature;BME280_humidity;BME280_pressure;Samples;Min_cycle;Max_cycle;Signal;HPM_P1;HPM_P2
2021/05/26 00:01:46;;;;;;;7.45;1.95;;;18.50;48.80;;;;;;5010264;28;20037;-70
2021/05/26 00:04:12;;;;;;;4.45;1.60;;;18.50;48.50;;;;;;5022105;28;20053;-70
2021/05/26 00:06:38;;;;;;;7.13;2.28;;;18.40;48.10;;;;;;5019153;28;20399;-71
2021/05/26 00:09:04;;;;;;;6.57;2.28;;;18.40;48.60;;;;;;5017258;28;20080;-69
2021/05/26 00:11:30;;;;;;;10.95;2.50;;;18.40;49.10;;;;;;5019691;28;20064;-69
2021/05/26 00:13:55;;;;;;;6.35;1.73;;;18.40;49.00;;;;;;5027064;28;20033;-69
2021/05/26 00:16:22;;;;;;;5.93;2.55;;;18.40;49.40;;;;;;5016738;28;20420;-71
2021/05/26 00:18:48;;;;;;;3.75;1.73;;;18.30;49.30;;;;;;5027587;28;20509;-71
2021/05/26 00:21:14;;;;;;;6.88;2.08;;;18.30;49.50;;;;;;5017044;28;20120;-69
2021/05/26 00:23:39;;;;;;;7.90;2.55;;;18.20;49.00;;;;;;5024635;28;20044;-71
2021/05/26 00:26:05;;;;;;;7.97;2.25;;;18.20;49.20;;;;;;5019770;28;20041;-70
2021/05/26 00:28:31;;;;;;;8.25;1.75;;;18.10;49.40;;;;;;5023923;28;20116;-70
2021/05/26 00:30:58;;;;;;;7.72;2.03;;;18.10;49.80;;;;;;5012335;28;20049;-69
2021/05/26 00:33:24;;;;;;;6.40;1.98;;;18.20;49.60;;;;;;5018109;28;20081;-60
2021/05/26 00:35:50;;;;;;;6.65;2.13;;;18.20;49.60;;;;;;5021669;28;20115;-69
2021/05/26 00:38:17;;;;;;;10.38;2.35;;;18.20;49.40;;;;;;5024600;28;20598;-70
2021/05/26 00:40:43;;;;;;;5.55;2.17;;;18.10;49.30;;;;;;5016651;28;20046;-69
2021/05/26 00:43:10;;;;;;;8.10;2.35;;;18.10;49.60;;;;;;5015563;28;20488;-69
2021/05/26 00:45:36;;;;;;;5.05;2.35;;;18.10;49.70;;;;;;5020807;28;20048;-70
2021/05/26 00:48:02;;;;;;;8.60;2.45;;;18.10;49.90;;;;;;5010485;28;20038;-71
2021/05/26 00:50:30;;;;;;;7.50;2.72;;;18.10;49.50;;;;;;5014280;28;20049;-70
2021/05/26 00:53:07;;;;;;;4.80;2.03;;;18.20;49.30;;;;;;5004290;28;20042;-69
2021/05/26 00:55:34;;;;;;;7.25;1.83;;;18.10;49.50;;;;;;5004160;28;20046;-69
2021/05/26 00:58:03;;;;;;;4.60;1.75;;;18.00;49.70;;;;;;5011135;28;20053;-70
2021/05/26 01:00:30;;;;;;;7.47;2.13;;;17.90;50.00;;;;;;5001974;28;20529;-70
2021/05/26 01:02:56;;;;;;;9.48;2.08;;;18.00;49.90;;;;;;5006428;28;20056;-70
2021/05/26 01:05:24;;;;;;;5.10;2.00;;;18.00;49.60;;;;;;5005055;28;20050;-70
2021/05/26 01:07:51;;;;;;;6.10;1.88;;;18.00;49.50;;;;;;5012951;28;20062;-70
2021/05/26 01:10:19;;;;;;;7.25;1.70;;;17.90;49.60;;;;;;5012639;28;20044;-69
2021/05/26 01:12:45;;;;;;;10.32;2.45;;;17.90;48.90;;;;;;5015579;28;20054;-70
2021/05/26 01:15:13;;;;;;;4.13;2.20;;;17.80;47.30;;;;;;5021401;28;20107;-70
2021/05/26 01:17:39;;;;;;;5.40;2.50;;;17.80;46.30;;;;;;5015042;28;20045;-70
2021/05/26 01:20:08;;;;;;;4.40;2.70;;;17.60;44.80;;;;;;5021231;28;20042;-70
2021/05/26 01:22:34;;;;;;;5.63;2.92;;;17.60;44.80;;;;;;5017402;28;20037;-69
2021/05/26 01:25:00;;;;;;;4.63;2.75;;;17.50;44.70;;;;;;5017714;28;20095;-70
2021/05/26 01:27:26;;;;;;;3.75;2.67;;;17.50;44.40;;;;;;5016312;28;20061;-70
2021/05/26 01:29:55;;;;;;;6.15;3.03;;;17.60;43.70;;;;;;5015958;28;20041;-71
2021/05/26 01:32:21;;;;;;;4.20;2.83;;;17.40;43.20;;;;;;5000824;28;20041;-71
2021/05/26 01:34:46;;;;;;;3.38;3.03;;;17.30;44.00;;;;;;4996936;28;20046;-73
2021/05/26 01:37:12;;;;;;;4.75;2.72;;;17.30;44.20;;;;;;5008761;28;20462;-72
2021/05/26 01:39:38;;;;;;;5.80;3.15;;;17.30;44.30;;;;;;4995109;28;20034;-72
2021/05/26 01:42:04;;;;;;;4.35;3.65;;;17.20;44.80;;;;;;5005630;28;20045;-72
2021/05/26 01:44:34;;;;;;;3.58;3.28;;;17.30;45.10;;;;;;5020067;28;20499;-73
2021/05/26 01:46:59;;;;;;;3.65;3.30;;;17.20;45.90;;;;;;5008284;28;20034;-72
2021/05/26 01:49:25;;;;;;;3.75;3.42;;;17.30;69.10;;;;;;5004322;28;20038;-71
2021/05/26 01:51:51;;;;;;;4.10;3.08;;;17.30;59.70;;;;;;5007116;28;20061;-74
2021/05/26 01:54:16;;;;;;;3.83;3.40;;;17.30;56.80;;;;;;5020352;28;20065;-73
2021/05/26 01:56:42;;;;;;;3.15;2.92;;;17.20;52.80;;;;;;5016142;28;20038;-73
2021/05/26 01:59:08;;;;;;;5.47;3.28;;;17.20;55.10;;;;;;5020428;28;20026;-73
2021/05/26 02:01:33;;;;;;;3.55;3.05;;;17.20;55.80;;;;;;5020886;28;20037;-73
2021/05/26 02:04:00;;;;;;;3.08;2.83;;;17.20;56.50;;;;;;5018942;28;21571;-73
2021/05/26 02:06:26;;;;;;;3.90;3.45;;;17.20;59.50;;;;;;5015047;28;20130;-73
2021/05/26 02:08:55;;;;;;;3.70;3.40;;;17.20;65.40;;;;;;5000678;28;20089;-74
2021/05/26 02:14:08;;;;;;;3.72;3.42;;;17.60;73.20;;;;;;4998808;28;20040;-74
2021/05/26 02:16:36;;;;;;;5.22;3.30;;;17.10;60.40;;;;;;5000469;28;20073;-73
2021/05/26 02:19:03;;;;;;;4.07;3.25;;;17.00;54.70;;;;;;5024443;28;20030;-73
2021/05/26 02:21:29;;;;;;;4.47;3.08;;;16.80;51.60;;;;;;5006342;28;20475;-72
2021/05/26 02:23:55;;;;;;;4.10;2.83;;;16.90;50.90;;;;;;5025479;28;20116;-70
2021/05/26 02:26:21;;;;;;;4.43;3.00;;;16.90;51.20;;;;;;5001737;28;20053;-73
2021/05/26 02:28:46;;;;;;;2.60;2.40;;;16.80;51.10;;;;;;5016554;28;20029;-73
2021/05/26 02:31:12;;;;;;;3.10;2.78;;;16.70;51.20;;;;;;4998538;28;20107;-73
2021/05/26 02:33:39;;;;;;;2.92;2.70;;;16.70;52.10;;;;;;5007736;28;20037;-72
2021/05/26 02:36:08;;;;;;;4.43;2.97;;;16.70;51.70;;;;;;4999950;28;20041;-72
2021/05/26 02:38:33;;;;;;;3.53;2.50;;;16.70;51.80;;;;;;5009485;28;20036;-72
2021/05/26 02:40:59;;;;;;;3.38;2.95;;;16.70;51.40;;;;;;5011255;28;20405;-72
2021/05/26 02:43:25;;;;;;;3.25;3.00;;;16.70;51.60;;;;;;5025912;28;20099;-73
2021/05/26 02:45:51;;;;;;;4.32;2.78;;;16.60;51.40;;;;;;5022479;28;20048;-72
2021/05/26 02:48:18;;;;;;;2.70;2.50;;;16.60;51.80;;;;;;5007840;28;20042;-72
2021/05/26 02:50:44;;;;;;;3.10;2.80;;;16.60;51.90;;;;;;5011235;28;20045;-72
2021/05/26 02:53:10;;;;;;;3.08;2.78;;;16.70;51.90;;;;;;5017779;28;20044;-72
2021/05/26 02:55:35;;;;;;;4.53;2.95;;;16.50;52.00;;;;;;5025681;28;20112;-71
2021/05/26 02:58:01;;;;;;;3.42;2.88;;;16.50;52.30;;;;;;5014674;28;20069;-71
2021/05/26 03:00:27;;;;;;;3.90;2.70;;;16.50;52.30;;;;;;5014268;28;20041;-71
2021/05/26 03:02:53;;;;;;;3.72;3.05;;;16.50;52.30;;;;;;5012731;28;20042;-72
2021/05/26 03:05:19;;;;;;;4.35;3.08;;;16.50;52.50;;;;;;5007875;28;20061;-72
2021/05/26 03:07:46;;;;;;;3.75;2.53;;;16.50;52.60;;;;;;5004625;28;20075;-72
2021/05/26 03:10:13;;;;;;;3.35;3.00;;;16.40;52.80;;;;;;5015506;28;20479;-72
2021/05/26 03:12:39;;;;;;;3.17;2.90;;;16.50;52.80;;;;;;5017420;28;20173;-72
2021/05/26 03:15:07;;;;;;;4.75;3.17;;;16.40;52.80;;;;;;5015310;28;20069;-72
2021/05/26 03:17:34;;;;;;;3.40;3.10;;;16.50;53.30;;;;;;5011290;28;20268;-72
2021/05/26 03:19:59;;;;;;;3.50;3.20;;;16.40;53.10;;;;;;5010608;28;20033;-72
2021/05/26 03:22:26;;;;;;;3.45;3.08;;;16.30;53.20;;;;;;5001571;28;20051;-71
2021/05/26 03:24:52;;;;;;;5.63;3.80;;;16.30;53.40;;;;;;5010191;28;20655;-72
2021/05/26 03:27:21;;;;;;;3.70;3.40;;;16.20;53.90;;;;;;5017310;28;20046;-70
2021/05/26 03:29:46;;;;;;;3.97;3.67;;;16.10;53.90;;;;;;5006623;28;20096;-71
2021/05/26 03:32:12;;;;;;;3.92;3.17;;;16.20;53.70;;;;;;4993050;28;20124;-71
2021/05/26 03:34:38;;;;;;;3.22;2.80;;;16.20;53.80;;;;;;5010171;28;20061;-70
2021/05/26 03:37:03;;;;;;;3.83;3.13;;;16.30;53.50;;;;;;5036843;28;20462;-70
2021/05/26 03:39:29;;;;;;;6.43;3.28;;;16.10;53.60;;;;;;5023731;28;20025;-70
2021/05/26 03:41:55;;;;;;;3.65;3.10;;;16.00;53.90;;;;;;5008520;28;20061;-70
2021/05/26 03:44:20;;;;;;;5.15;3.22;;;16.10;53.80;;;;;;5021117;28;20034;-71
2021/05/26 03:46:46;;;;;;;4.97;3.53;;;16.10;53.90;;;;;;5003665;28;20113;-70
2021/05/26 03:49:12;;;;;;;5.50;3.08;;;16.10;53.70;;;;;;5011546;28;20125;-70
2021/05/26 03:51:38;;;;;;;4.40;3.72;;;16.00;53.90;;;;;;5054095;28;20034;-70
2021/05/26 03:54:04;;;;;;;6.13;3.72;;;16.00;54.10;;;;;;5018465;28;20041;-70
2021/05/26 03:56:29;;;;;;;4.78;3.13;;;15.80;54.30;;;;;;5007514;28;20052;-70
2021/05/26 03:58:58;;;;;;;3.40;3.10;;;15.90;54.20;;;;;;4997078;28;20068;-71
2021/05/26 04:01:24;;;;;;;3.95;3.33;;;16.00;54.20;;;;;;5003920;28;20085;-71
2021/05/26 04:03:52;;;;;;;3.40;3.10;;;16.10;54.30;;;;;;5033353;28;20120;-71
2021/05/26 04:06:18;;;;;;;4.80;2.75;;;16.00;54.40;;;;;;5021220;28;20104;-70
2021/05/26 04:08:43;;;;;;;3.53;3.22;;;16.00;54.30;;;;;;5015904;28;20140;-71
2021/05/26 04:11:09;;;;;;;7.15;3.22;;;16.10;54.30;;;;;;5017153;28;20381;-71
2021/05/26 04:13:34;;;;;;;3.67;3.38;;;16.10;54.00;;;;;;5017567;28;20037;-70
2021/05/26 04:16:00;;;;;;;4.03;3.28;;;16.10;54.30;;;;;;5020117;28;20087;-71
2021/05/26 04:18:26;;;;;;;3.20;2.90;;;16.10;54.20;;;;;;5004262;28;20525;-65
2021/05/26 04:20:51;;;;;;;3.97;2.88;;;16.10;54.40;;;;;;5006890;28;20607;-70
2021/05/26 04:23:17;;;;;;;3.22;2.92;;;15.90;54.70;;;;;;5010789;28;20050;-71
2021/05/26 04:25:48;;;;;;;3.55;3.05;;;15.90;54.80;;;;;;5006071;28;20129;-71
2021/05/26 04:28:13;;;;;;;6.55;3.13;;;15.90;54.60;;;;;;5023218;28;20033;-71
2021/05/26 04:30:39;;;;;;;3.38;3.08;;;16.00;54.60;;;;;;5011074;28;20327;-71
2021/05/26 04:33:05;;;;;;;3.03;2.78;;;16.10;54.50;;;;;;5014522;28;20597;-70
2021/05/26 04:35:30;;;;;;;5.45;3.35;;;16.10;54.50;;;;;;5008625;28;20037;-70
2021/05/26 04:37:56;;;;;;;3.53;3.00;;;16.10;54.40;;;;;;5023986;28;20067;-67
2021/05/26 04:40:21;;;;;;;3.30;2.97;;;16.10;54.80;;;;;;5011763;28;20072;-71
2021/05/26 04:42:47;;;;;;;4.88;2.90;;;16.10;54.40;;;;;;5016228;28;20124;-71
2021/05/26 04:45:13;;;;;;;2.72;2.53;;;16.10;54.50;;;;;;5023972;28;20042;-70
2021/05/26 04:47:39;;;;;;;4.05;2.97;;;16.10;54.90;;;;;;5017333;28;20042;-70
2021/05/26 04:50:05;;;;;;;3.63;2.95;;;16.00;55.00;;;;;;5013029;28;20044;-70
2021/05/26 04:52:31;;;;;;;4.40;2.92;;;16.10;54.80;;;;;;5012444;28;20403;-71
2021/05/26 04:54:56;;;;;;;2.67;2.47;;;16.10;54.60;;;;;;5010937;28;20026;-70
2021/05/26 04:57:22;;;;;;;4.15;3.10;;;16.00;54.80;;;;;;5017374;28;20049;-71
2021/05/26 04:59:48;;;;;;;3.03;2.58;;;16.00;54.80;;;;;;5007103;28;20160;-71
2021/05/26 05:02:13;;;;;;;2.90;2.70;;;15.90;55.00;;;;;;5015689;28;20041;-70
2021/05/26 05:04:39;;;;;;;3.33;3.03;;;16.00;55.00;;;;;;5014154;28;20035;-71
2021/05/26 05:07:05;;;;;;;3.92;3.38;;;15.90;55.10;;;;;;5012793;28;20026;-71
2021/05/26 05:09:30;;;;;;;3.25;2.95;;;16.00;55.00;;;;;;5022340;28;20049;-71
2021/05/26 05:11:56;;;;;;;4.40;3.00;;;16.10;55.20;;;;;;5016323;28;20061;-66
2021/05/26 05:14:22;;;;;;;3.85;2.97;;;16.10;54.80;;;;;;5013819;28;20124;-70
2021/05/26 05:16:47;;;;;;;3.63;2.65;;;16.10;55.00;;;;;;5014085;28;20088;-71
2021/05/26 05:19:13;;;;;;;2.83;2.63;;;16.20;55.00;;;;;;5008678;28;20045;-71
2021/05/26 05:21:38;;;;;;;4.15;2.88;;;16.20;54.60;;;;;;5018036;28;20045;-71
2021/05/26 05:24:05;;;;;;;4.68;2.90;;;16.00;54.50;;;;;;5019829;28;20030;-71
2021/05/26 05:26:30;;;;;;;3.15;2.80;;;16.10;54.80;;;;;;5023243;28;20471;-71
2021/05/26 05:28:56;;;;;;;3.65;2.83;;;16.20;54.60;;;;;;5000967;28;20031;-66
2021/05/26 05:31:23;;;;;;;3.45;2.90;;;16.30;54.70;;;;;;5025024;28;20037;-71
2021/05/26 05:33:48;;;;;;;2.80;2.60;;;16.30;54.80;;;;;;5009431;28;20113;-71
2021/05/26 05:36:14;;;;;;;3.00;2.80;;;16.30;54.80;;;;;;5022479;28;20127;-71
2021/05/26 05:38:40;;;;;;;4.63;2.92;;;16.30;54.50;;;;;;5009371;28;20045;-72
2021/05/26 05:41:05;;;;;;;3.20;2.90;;;16.20;54.20;;;;;;5019554;28;20118;-71
2021/05/26 05:43:31;;;;;;;4.45;3.25;;;16.30;54.60;;;;;;5027267;28;20046;-71
2021/05/26 05:45:57;;;;;;;3.60;2.80;;;16.30;54.30;;;;;;5021122;28;20049;-70
2021/05/26 05:48:23;;;;;;;3.67;3.08;;;16.30;54.20;;;;;;5023626;28;20045;-72
2021/05/26 05:50:48;;;;;;;7.05;3.13;;;16.30;54.20;;;;;;5026275;28;20034;-71
2021/05/26 05:53:14;;;;;;;3.22;2.92;;;16.30;54.30;;;;;;4998509;28;20042;-71
2021/05/26 05:55:40;;;;;;;6.72;3.20;;;16.30;54.40;;;;;;5016443;28;20096;-71
2021/05/26 05:58:05;;;;;;;3.22;2.55;;;16.40;55.00;;;;;;5014018;28;20041;-71
2021/05/26 06:00:35;;;;;;;3.35;3.05;;;16.30;54.20;;;;;;5015646;28;20407;-70
2021/05/26 06:03:00;;;;;;;7.70;2.75;;;16.30;53.80;;;;;;5018848;28;20045;-71
2021/05/26 06:05:26;;;;;;;4.45;2.83;;;16.30;54.00;;;;;;5031234;28;20038;-71
2021/05/26 06:07:52;;;;;;;3.60;2.63;;;16.40;53.90;;;;;;5022889;28;20892;-71
2021/05/26 06:10:17;;;;;;;3.08;2.50;;;16.40;53.70;;;;;;5020082;28;20045;-72
2021/05/26 06:12:43;;;;;;;3.15;2.85;;;16.50;53.40;;;;;;5016367;28;20483;-71
2021/05/26 06:15:09;;;;;;;3.13;2.70;;;16.50;53.60;;;;;;5014132;28;20030;-71
2021/05/26 06:17:35;;;;;;;3.33;2.80;;;16.60;53.70;;;;;;5001491;28;20046;-71
2021/05/26 06:20:01;;;;;;;4.07;2.88;;;16.60;53.00;;;;;;5001838;28;20044;-71
2021/05/26 06:22:26;;;;;;;2.42;2.22;;;16.60;53.10;;;;;;5034844;28;20155;-70
2021/05/26 06:24:52;;;;;;;4.25;2.60;;;16.60;52.90;;;;;;5005028;28;20101;-70
2021/05/26 06:27:18;;;;;;;2.90;2.22;;;16.70;53.50;;;;;;5007817;28;20392;-70
2021/05/26 06:29:43;;;;;;;3.03;2.13;;;16.70;52.90;;;;;;5007646;28;20404;-70
2021/05/26 06:32:09;;;;;;;5.65;2.50;;;16.70;53.00;;;;;;5021878;28;20124;-69
2021/05/26 06:34:35;;;;;;;4.05;2.67;;;16.70;52.80;;;;;;5005000;28;20053;-69
2021/05/26 06:37:01;;;;;;;7.03;2.97;;;16.80;53.10;;;;;;5014659;28;20070;-71
2021/05/26 06:39:27;;;;;;;5.05;2.97;;;16.90;53.10;;;;;;5019483;28;20049;-70
2021/05/26 06:41:53;;;;;;;2.58;2.03;;;16.90;53.10;;;;;;5025130;28;20033;-71
2021/05/26 06:44:18;;;;;;;3.60;2.30;;;16.90;53.10;;;;;;5016099;28;20069;-69
2021/05/26 06:46:44;;;;;;;4.57;3.10;;;17.00;52.70;;;;;;5026720;28;20037;-71
2021/05/26 06:49:10;;;;;;;3.60;2.45;;;17.00;52.30;;;;;;5013587;28;20124;-71
2021/05/26 06:51:35;;;;;;;4.68;2.80;;;17.00;52.50;;;;;;5002355;28;20481;-69
2021/05/26 06:54:01;;;;;;;4.03;2.38;;;17.00;52.40;;;;;;5014436;28;20037;-70
2021/05/26 06:56:27;;;;;;;4.22;2.60;;;17.00;52.40;;;;;;4989971;28;20054;-71
2021/05/26 06:58:53;;;;;;;5.00;3.55;;;17.10;52.20;;;;;;5012247;28;20060;-71
2021/05/26 07:01:19;;;;;;;5.30;2.95;;;17.00;52.40;;;;;;5005911;28;20038;-71
2021/05/26 07:03:44;;;;;;;4.47;2.65;;;17.00;52.40;;;;;;5021411;28;20038;-70
2021/05/26 07:06:10;;;;;;;3.78;3.15;;;17.10;52.60;;;;;;5020445;28;20052;-70
2021/05/26 07:08:36;;;;;;;3.10;2.88;;;17.10;52.00;;;;;;5020695;28;20038;-70
2021/05/26 07:11:01;;;;;;;6.45;2.80;;;17.10;52.10;;;;;;5021638;28;20136;-69
2021/05/26 07:13:27;;;;;;;5.32;2.95;;;17.10;52.10;;;;;;5021419;28;20049;-70
2021/05/26 07:15:53;;;;;;;3.00;2.55;;;17.20;52.50;;;;;;5013438;28;20048;-70
2021/05/26 07:18:19;;;;;;;2.90;2.70;;;17.20;51.90;;;;;;5003056;28;20591;-70
2021/05/26 07:20:46;;;;;;;3.75;2.55;;;17.30;51.50;;;;;;5027000;28;20479;-69
2021/05/26 07:23:12;;;;;;;3.58;2.85;;;17.40;51.50;;;;;;5005928;28;20045;-69
2021/05/26 07:25:38;;;;;;;2.95;2.55;;;17.40;51.40;;;;;;5003987;28;20034;-69
2021/05/26 07:28:04;;;;;;;3.10;2.80;;;17.40;51.50;;;;;;5001171;28;20038;-69
2021/05/26 07:30:30;;;;;;;4.00;2.75;;;17.50;51.30;;;;;;5007607;28;20041;-69
2021/05/26 07:32:56;;;;;;;2.97;2.53;;;17.50;51.50;;;;;;4990363;28;20041;-69
2021/05/26 07:35:21;;;;;;;3.25;2.80;;;17.50;51.30;;;;;;5000948;28;20048;-70
2021/05/26 07:37:47;;;;;;;4.15;3.00;;;17.50;51.30;;;;;;5000878;28;20068;-70
2021/05/26 07:40:14;;;;;;;3.85;2.95;;;17.60;51.20;;;;;;4997481;28;20072;-70
2021/05/26 07:42:40;;;;;;;3.40;2.70;;;17.60;51.00;;;;;;4995610;28;20034;-71
2021/05/26 07:45:07;;;;;;;5.25;3.08;;;17.60;51.20;;;;;;5006515;28;20100;-71
2021/05/26 07:47:33;;;;;;;4.05;2.58;;;17.60;50.60;;;;;;5007161;28;20059;-70
2021/05/26 07:49:59;;;;;;;4.40;2.78;;;17.70;50.70;;;;;;5015753;28;20096;-70
2021/05/26 07:52:27;;;;;;;6.50;3.40;;;17.70;50.50;;;;;;4992099;28;20045;-70
2021/05/26 07:54:53;;;;;;;8.68;5.53;;;17.80;50.40;;;;;;5014498;28;20136;-70
2021/05/26 07:57:19;;;;;;;6.00;3.83;;;17.80;50.40;;;;;;5007668;28;20125;-71
2021/05/26 07:59:45;;;;;;;6.22;3.63;;;17.90;50.00;;;;;;5001239;28;20110;-71
2021/05/26 08:02:13;;;;;;;4.40;2.78;;;18.00;49.90;;;;;;5007258;28;20156;-71
2021/05/26 08:04:40;;;;;;;4.00;2.85;;;18.00;50.10;;;;;;4998230;28;20038;-70
2021/05/26 08:07:08;;;;;;;4.60;2.78;;;18.10;49.80;;;;;;5019194;28;20034;-71
2021/05/26 08:09:34;;;;;;;3.40;2.75;;;18.20;49.90;;;;;;5014430;28;20041;-70
2021/05/26 08:12:00;;;;;;;4.88;3.38;;;18.20;49.70;;;;;;5011801;28;20033;-70
2021/05/26 08:14:26;;;;;;;3.92;3.30;;;18.20;49.70;;;;;;5007713;28;20034;-70
2021/05/26 08:16:52;;;;;;;3.20;2.85;;;18.20;50.30;;;;;;5028137;28;20100;-71
2021/05/26 08:19:17;;;;;;;5.18;2.97;;;18.20;49.80;;;;;;4994162;28;20065;-71
2021/05/26 08:21:43;;;;;;;7.15;3.60;;;18.30;49.70;;;;;;5017386;28;20030;-71
2021/05/26 08:24:09;;;;;;;5.70;3.78;;;18.30;49.30;;;;;;5007849;28;20073;-71
2021/05/26 08:26:35;;;;;;;4.00;3.50;;;18.40;49.40;;;;;;5014405;28;20479;-70
2021/05/26 08:29:03;;;;;;;6.53;3.60;;;18.40;49.70;;;;;;5005882;28;20151;-70
2021/05/26 08:31:30;;;;;;;5.55;3.25;;;18.40;49.50;;;;;;5003881;28;20041;-70
2021/05/26 08:33:55;;;;;;;7.00;3.20;;;18.50;50.10;;;;;;5020903;28;20073;-71
2021/05/26 08:36:21;;;;;;;5.25;2.60;;;18.60;49.70;;;;;;5007424;28;20077;-70
2021/05/26 08:38:47;;;;;;;3.00;2.70;;;18.60;49.00;;;;;;5010368;28;20061;-70
2021/05/26 08:41:12;;;;;;;3.50;3.20;;;18.60;48.50;;;;;;5000512;28;20042;-70
2021/05/26 08:43:41;;;;;;;3.97;3.30;;;18.70;48.20;;;;;;5020137;28;20125;-70
2021/05/26 08:46:07;;;;;;;3.95;2.90;;;18.80;48.10;;;;;;5008884;28;20070;-70
2021/05/26 08:48:33;;;;;;;4.43;3.65;;;18.80;47.30;;;;;;5018016;28;20088;-64
2021/05/26 08:51:00;;;;;;;4.00;2.67;;;18.90;47.00;;;;;;5000926;28;20038;-64
2021/05/26 08:53:27;;;;;;;4.90;3.05;;;18.90;46.50;;;;;;5017039;28;20046;-69
2021/05/26 08:55:53;;;;;;;7.50;2.67;;;18.80;46.30;;;;;;5013345;28;20515;-69
2021/05/26 08:58:19;;;;;;;5.75;2.85;;;18.90;46.50;;;;;;5002244;28;20133;-65
2021/05/26 09:00:47;;;;;;;4.40;2.50;;;19.00;46.50;;;;;;5002844;28;20156;-63
2021/05/26 09:03:13;;;;;;;3.28;2.97;;;19.00;46.50;;;;;;4999897;28;20057;-71
2021/05/26 09:05:39;;;;;;;5.15;3.40;;;19.00;46.60;;;;;;5013470;28;20038;-70
2021/05/26 09:08:23;;;;;;;4.55;2.97;;;19.10;46.30;;;;;;5019009;28;20517;-69
2021/05/26 09:11:02;;;;;;;4.18;3.83;;;19.20;46.40;;;;;;4998820;28;20034;-70
2021/05/26 09:13:29;;;;;;;3.00;2.70;;;19.20;46.50;;;;;;5008175;28;20041;-70
2021/05/26 09:15:54;;;;;;;5.47;3.58;;;19.30;46.90;;;;;;5007967;28;20069;-70
2021/05/26 09:18:20;;;;;;;4.97;4.47;;;19.30;46.80;;;;;;5021212;28;20050;-71
2021/05/26 09:20:46;;;;;;;7.57;4.95;;;19.30;46.80;;;;;;5021511;28;20029;-71
2021/05/26 09:23:13;;;;;;;4.53;4.05;;;19.50;46.60;;;;;;5022508;28;20071;-71
2021/05/26 09:25:59;;;;;;;3.47;3.17;;;19.50;46.20;;;;;;5023185;28;20491;-71
2021/05/26 09:28:31;;;;;;;7.65;4.07;;;19.50;46.20;;;;;;5012351;28;20120;-71
2021/05/26 09:31:05;;;;;;;6.05;3.72;;;19.50;46.70;;;;;;5022265;28;20045;-71
2021/05/26 09:33:31;;;;;;;;;;;19.50;46.90;;;;;;5015625;28;20042;-71
2021/05/26 09:36:21;;;;;;;5.97;3.70;;;19.60;47.20;;;;;;4999911;28;19921;-71
2021/05/26 09:38:57;;;;;;;9.15;4.38;;;19.60;46.20;;;;;;4989646;28;20047;-71
2021/05/26 09:41:27;;;;;;;5.90;4.18;;;19.60;46.40;;;;;;5018246;28;20057;-71
2021/05/26 09:43:54;;;;;;;3.85;3.45;;;19.70;46.40;;;;;;5019744;28;20046;-71
2021/05/26 09:46:23;;;;;;;4.93;3.88;;;19.70;46.90;;;;;;5024687;28;20228;-71
2021/05/26 09:49:05;;;;;;;5.90;4.15;;;;;;;;;;5001374;28;20040;-71
2021/05/26 09:51:35;;;;;;;6.78;3.92;;;20.10;75.50;;;;;;5010294;28;20388;-70
2021/05/26 09:54:20;;;;;;;5.45;3.95;;;19.90;73.80;;;;;;5015656;28;20499;-70
2021/05/26 09:57:04;;;;;;;5.95;4.55;;;20.00;72.90;;;;;;5033642;28;20045;-71
2021/05/26 09:59:32;;;;;;;4.95;4.25;;;20.10;74.20;;;;;;5018171;28;20026;-70
2021/05/26 10:01:58;;;;;;;5.47;4.15;;;20.20;76.80;;;;;;5015714;28;20033;-71
2021/05/26 10:04:24;;;;;;;5.65;4.13;;;20.10;64.60;;;;;;5020529;28;20099;-70
2021/05/26 10:06:55;;;;;;;5.75;4.60;;;20.10;55.80;;;;;;5021812;28;20087;-71
2021/05/26 10:09:23;;;;;;;6.38;4.63;;;20.20;52.90;;;;;;5021355;28;20060;-72
2021/05/26 10:11:53;;;;;;;4.90;4.38;;;20.30;53.40;;;;;;5027122;28;20479;-71
2021/05/26 10:14:22;;;;;;;5.22;3.80;;;20.40;56.90;;;;;;5018429;28;20041;-71
2021/05/26 10:16:50;;;;;;;5.05;4.55;;;20.50;58.50;;;;;;5025447;28;20049;-71
2021/05/26 10:19:16;;;;;;;6.68;4.47;;;20.30;45.40;;;;;;5013328;28;20045;-71
2021/05/26 10:21:41;;;;;;;5.68;4.43;;;20.40;45.90;;;;;;5029248;28;20041;-71
2021/05/26 10:24:10;;;;;;;6.32;4.72;;;20.60;55.40;;;;;;5021587;28;20502;-71
2021/05/26 10:26:49;;;;;;;8.40;4.65;;;;;;;;;;5022586;28;20060;-72
2021/05/26 10:29:33;;;;;;;6.60;5.50;;;;;;;;;;5014759;28;20064;-72
2021/05/26 10:32:07;;;;;;;5.25;4.35;;;21.20;73.20;;;;;;5018617;28;20125;-71
2021/05/26 10:34:50;;;;;;;6.43;5.20;;;20.90;43.90;;;;;;5016579;28;20042;-71
2021/05/26 10:37:38;;;;;;;6.13;5.65;;;20.90;44.80;;;;;;5029174;28;20061;-71
2021/05/26 10:40:30;;;;;;;7.78;4.85;;;21.00;44.50;;;;;;4995109;28;20038;-71
2021/05/26 10:43:12;;;;;;;8.30;5.13;;;21.20;44.10;;;;;;5018124;28;20068;-72
2021/05/26 10:45:38;;;;;;;6.68;5.65;;;21.30;43.40;;;;;;4998542;28;20141;-72
2021/05/26 10:48:04;;;;;;;6.35;5.05;;;21.50;42.90;;;;;;5019462;28;20596;-72
2021/05/26 10:50:49;;;;;;;6.90;5.03;;;21.70;43.70;;;;;;5015867;28;20034;-72
2021/05/26 10:53:17;;;;;;;6.38;5.78;;;21.70;42.20;;;;;;4999199;28;20053;-72
2021/05/26 10:55:44;;;;;;;7.03;5.32;;;21.90;42.40;;;;;;5004783;28;20050;-71
2021/05/26 10:58:16;;;;;;;5.82;4.72;;;22.00;41.50;;;;;;5029063;28;20069;-72
2021/05/26 11:01:03;;;;;;;4.93;4.53;;;22.50;41.70;;;;;;5022603;28;20129;-71
2021/05/26 11:03:30;;;;;;;5.25;4.80;;;22.70;40.60;;;;;;5010575;28;20041;-70
2021/05/26 11:05:59;;;;;;;6.40;5.63;;;;;;;;;;5037464;28;20348;-71
2021/05/26 11:08:34;;;;;;;8.07;5.53;;;23.60;47.40;;;;;;5036627;28;20486;-71
2021/05/26 11:11:27;;;;;;;8.10;5.72;;;23.30;38.80;;;;;;5017164;28;20039;-70
2021/05/26 11:14:11;;;;;;;7.25;6.00;;;22.50;39.00;;;;;;5002161;28;20033;-71
2021/05/26 11:16:46;;;;;;;7.30;5.95;;;23.10;39.40;;;;;;4994467;28;20044;-71
2021/05/26 11:19:16;;;;;;;6.65;5.03;;;24.10;37.00;;;;;;5032390;28;20456;-71
2021/05/26 11:21:52;;;;;;;6.10;5.50;;;24.50;36.60;;;;;;5007035;28;20025;-70
2021/05/26 11:24:18;;;;;;;6.57;5.95;;;23.40;37.70;;;;;;5007190;28;20096;-70
2021/05/26 11:26:44;;;;;;;10.10;6.70;;;23.00;39.50;;;;;;5019053;28;20029;-70
2021/05/26 11:29:10;;;;;;;8.80;6.60;;;23.50;39.30;;;;;;5024370;28;20068;-71
2021/05/26 11:31:36;;;;;;;8.32;6.93;;;23.70;38.50;;;;;;5011226;28;20483;-71
2021/05/26 11:34:07;;;;;;;13.32;7.10;;;24.00;38.50;;;;;;5021302;28;20042;-70
2021/05/26 11:36:45;;;;;;;8.13;6.82;;;23.90;38.50;;;;;;5022979;28;20029;-71
2021/05/26 11:39:20;;;;;;;9.70;7.43;;;24.40;38.00;;;;;;5017871;28;20401;-71
2021/05/26 11:41:45;;;;;;;16.10;11.55;;;24.60;36.60;;;;;;5017762;28;20045;-71
2021/05/26 11:44:11;;;;;;;9.88;8.45;;;25.00;35.80;;;;;;5021384;28;20037;-72
2021/05/26 11:46:37;;;;;;;10.63;6.78;;;25.20;35.50;;;;;;5021409;28;20052;-71
2021/05/26 11:49:10;;;;;;;11.52;6.22;;;25.60;34.40;;;;;;5015969;28;20477;-71
2021/05/26 11:51:38;;;;;;;7.22;5.70;;;26.10;33.30;;;;;;5013166;28;20037;-72
2021/05/26 11:54:05;;;;;;;7.93;7.13;;;26.10;33.60;;;;;;5014127;28;20570;-72
2021/05/26 11:56:30;;;;;;;8.60;7.30;;;26.60;33.10;;;;;;5000473;28;20046;-71
2021/05/26 11:58:56;;;;;;;6.47;5.07;;;26.70;33.20;;;;;;5011404;28;20045;-71
2021/05/26 12:01:30;;;;;;;8.70;6.72;;;26.30;32.40;;;;;;5016362;28;20029;-70
2021/05/26 12:03:55;;;;;;;7.32;6.63;;;26.00;33.80;;;;;;5033696;28;20043;-71
2021/05/26 12:06:23;;;;;;;6.07;5.43;;;26.00;34.40;;;;;;5013034;28;20472;-71
2021/05/26 12:08:49;;;;;;;8.13;6.50;;;25.60;34.10;;;;;;4996210;28;20727;-71
2021/05/26 12:11:18;;;;;;;6.70;5.82;;;25.40;34.30;;;;;;5021195;28;20128;-71
2021/05/26 12:13:47;;;;;;;7.25;6.20;;;25.60;33.30;;;;;;5017995;28;20441;-71
2021/05/26 12:16:14;;;;;;;7.00;5.68;;;25.70;33.10;;;;;;5023752;28;20475;-71
2021/05/26 12:18:49;;;;;;;6.65;5.78;;;25.50;34.20;;;;;;5011007;28;20120;-71
2021/05/26 12:21:15;;;;;;;8.23;7.43;;;25.90;33.50;;;;;;5014464;28;20091;-71
2021/05/26 12:23:44;;;;;;;8.52;7.55;;;26.10;33.20;;;;;;5010228;28;20396;-71
2021/05/26 12:26:27;;;;;;;9.27;7.60;;;26.40;33.10;;;;;;5026191;28;20037;-71
2021/05/26 12:28:55;;;;;;;7.10;6.40;;;26.30;32.50;;;;;;5019367;28;20046;-71
2021/05/26 12:31:21;;;;;;;7.78;7.00;;;25.30;34.40;;;;;;5006194;28;20124;-71
2021/05/26 12:33:50;;;;;;;6.85;5.95;;;25.00;35.30;;;;;;5019300;28;20042;-71
2021/05/26 12:36:16;;;;;;;8.18;6.80;;;25.50;34.40;;;;;;5012631;28;20397;-71
2021/05/26 12:38:44;;;;;;;5.85;5.35;;;26.00;33.60;;;;;;4996750;28;20125;-71
2021/05/26 12:41:34;;;;;;;6.50;5.40;;;26.40;33.20;;;;;;4999642;28;20038;-72
2021/05/26 12:44:07;;;;;;;8.15;6.85;;;26.70;31.00;;;;;;5019578;28;20485;-71
2021/05/26 12:46:52;;;;;;;7.70;7.00;;;27.10;35.60;;;;;;5007754;28;20507;-72
2021/05/26 12:49:27;;;;;;;7.40;4.97;;;27.80;30.20;;;;;;5000648;28;20522;-72
2021/05/26 12:51:54;;;;;;;7.13;6.28;;;28.00;30.60;;;;;;5015808;28;20196;-72
2021/05/26 12:54:19;;;;;;;7.03;5.97;;;27.60;30.90;;;;;;5002708;28;21629;-72